Time;durP1;ratioP1;P1;durP2;ratioP2;P2;SDS_P1;SDS_P2;PMS_P1;PMS_P2;Temp;Humidity;BMP_temperature;BMP_pressure;BME280_temperature;BME280_humidity;BME280_pressure;Samples;Min_cycle;Max_cycle;Signal;HPM_P1;HPM_P2
2023/01/05 00:01:51;;;;;;;0.60;0.60;;;17.90;69.30;;;;;;5079491;28;44041;-78
2023/01/05 00:04:19;;;;;;;0.50;0.50;;;17.90;69.00;;;;;;5074875;28;43372;-76
2023/01/05 00:06:47;;;;;;;0.63;0.63;;;17.90;69.00;;;;;;5055930;28;43546;-75
2023/01/05 00:09:16;;;;;;;0.63;0.63;;;17.80;69.10;;;;;;5076307;28;43913;-76
2023/01/05 00:22:52;;;;;;;0.70;0.70;;;17.70;69.60;;;;;;5077445;28;43537;-74
2023/01/05 00:25:20;;;;;;;0.50;0.50;;;17.70;69.80;;;;;;5053603;28;43412;-76
2023/01/05 00:27:50;;;;;;;0.40;0.40;;;17.70;69.80;;;;;;5078922;28;43852;-77
2023/01/05 00:30:21;;;;;;;0.50;0.50;;;17.70;69.80;;;;;;5069878;28;43604;-77
2023/01/05 00:32:48;;;;;;;0.70;0.70;;;17.70;69.80;;;;;;5057064;28;45189;-76
2023/01/05 00:35:18;;;;;;;0.50;0.50;;;17.60;69.70;;;;;;5077987;28;43511;-76
2023/01/05 00:37:46;;;;;;;0.50;0.50;;;17.60;69.90;;;;;;5061602;28;44024;-75
2023/01/05 00:40:16;;;;;;;0.60;0.60;;;17.60;70.00;;;;;;5055808;28;46726;-78
2023/01/05 00:42:44;;;;;;;0.33;0.33;;;17.70;69.90;;;;;;5079880;28;43405;-76
2023/01/05 00:45:13;;;;;;;0.50;0.50;;;17.80;69.60;;;;;;5082970;28;43561;-77
2023/01/05 00:47:42;;;;;;;0.50;0.50;;;17.90;69.20;;;;;;5080719;28;43578;-75
2023/01/05 00:50:12;;;;;;;0.40;0.40;;;17.90;69.00;;;;;;5084075;28;43900;-75
2023/01/05 00:52:40;;;;;;;0.50;0.50;;;17.90;69.10;;;;;;5066463;28;43486;-76
2023/01/05 00:55:08;;;;;;;0.40;0.40;;;17.80;69.30;;;;;;5064138;28;43470;-77
2023/01/05 00:57:36;;;;;;;0.40;0.40;;;17.80;69.30;;;;;;5059022;28;43514;-76
2023/01/05 01:00:06;;;;;;;0.60;0.60;;;17.80;69.30;;;;;;5065286;28;46320;-71
2023/01/05 01:02:35;;;;;;;0.40;0.40;;;17.80;69.40;;;;;;5066785;28;43633;-76
2023/01/05 01:05:05;;;;;;;0.40;0.40;;;17.70;69.40;;;;;;5079855;28;43509;-72
2023/01/05 01:07:33;;;;;;;0.37;0.37;;;17.70;69.60;;;;;;5080446;28;43804;-75
2023/01/05 01:10:00;;;;;;;0.60;0.60;;;17.70;69.80;;;;;;5061326;28;45806;-77
2023/01/05 01:12:28;;;;;;;0.50;0.50;;;17.70;69.80;;;;;;5083157;28;43805;-76
2023/01/05 01:14:57;;;;;;;0.37;0.37;;;17.70;69.70;;;;;;5067378;28;43434;-75
2023/01/05 01:17:25;;;;;;;0.40;0.40;;;17.70;70.40;;;;;;5081768;28;43552;-75
2023/01/05 01:19:53;;;;;;;0.50;0.50;;;17.70;69.80;;;;;;5057098;28;45659;-77
2023/01/05 01:22:22;;;;;;;0.30;0.30;;;17.60;69.80;;;;;;5060277;28;45179;-75
2023/01/05 01:24:50;;;;;;;0.40;0.40;;;17.60;70.10;;;;;;5080107;28;43478;-71
2023/01/05 01:27:18;;;;;;;0.60;0.60;;;17.70;69.90;;;;;;5057024;28;43542;-75
2023/01/05 01:29:46;;;;;;;0.50;0.50;;;17.80;69.60;;;;;;5077964;28;43592;-77
2023/01/05 01:32:14;;;;;;;0.50;0.50;;;17.80;69.30;;;;;;5062315;28;44836;-76
2023/01/05 01:34:42;;;;;;;0.50;0.50;;;17.80;69.30;;;;;;5058518;28;43420;-75
2023/01/05 01:37:13;;;;;;;0.50;0.50;;;17.80;69.50;;;;;;5066122;28;44047;-76
2023/01/05 01:39:48;;;;;;;0.40;0.40;;;17.70;69.60;;;;;;5058400;28;45892;-75
2023/01/05 01:42:16;;;;;;;0.50;0.50;;;17.70;69.50;;;;;;5064900;28;43542;-77
2023/01/05 01:44:52;;;;;;;0.40;0.40;;;17.70;69.50;;;;;;5067264;28;43386;-77
2023/01/05 01:47:26;;;;;;;0.30;0.30;;;17.70;69.60;;;;;;5097358;27;44053;-76
2023/01/05 01:49:54;;;;;;;0.57;0.57;;;17.70;69.80;;;;;;5063498;28;43829;-78
2023/01/05 01:52:24;;;;;;;0.50;0.50;;;17.60;69.80;;;;;;5081051;28;43466;-77
2023/01/05 01:54:56;;;;;;;0.50;0.50;;;17.60;70.00;;;;;;5059760;28;44009;-77
2023/01/05 01:57:24;;;;;;;0.47;0.47;;;17.60;69.80;;;;;;5081577;28;44075;-76
2023/01/05 01:59:52;;;;;;;0.53;0.53;;;17.60;69.70;;;;;;5058062;28;45874;-75
2023/01/05 02:02:20;;;;;;;0.40;0.40;;;17.60;69.80;;;;;;5061762;28;43533;-78
2023/01/05 02:04:48;;;;;;;0.40;0.40;;;17.60;69.90;;;;;;5063985;28;43456;-76
2023/01/05 02:07:16;;;;;;;0.33;0.33;;;17.60;70.00;;;;;;5059074;28;43921;-76
2023/01/05 02:09:44;;;;;;;0.43;0.43;;;17.60;70.20;;;;;;5076196;27;43920;-76
2023/01/05 02:12:19;;;;;;;0.47;0.47;;;17.60;70.10;;;;;;5064024;28;43511;-76
2023/01/05 02:14:51;;;;;;;0.50;0.50;;;17.80;69.80;;;;;;5058245;28;43495;-76
2023/01/05 02:17:24;;;;;;;0.30;0.30;;;17.90;69.30;;;;;;5095563;27;43546;-75
2023/01/05 02:20:32;;;;;;;0.47;0.47;;;17.90;69.00;;;;;;5062401;28;44165;-76
2023/01/05 02:23:26;;;;;;;0.47;0.47;;;17.90;69.20;;;;;;5023702;28;44323;-77
2023/01/05 02:26:07;;;;;;;0.33;0.33;;;17.80;69.30;;;;;;5085431;28;43468;-76
2023/01/05 02:28:46;;;;;;;0.40;0.40;;;17.80;69.20;;;;;;5071749;28;43548;-76
2023/01/05 02:31:16;;;;;;;0.40;0.40;;;17.80;69.40;;;;;;5056248;28;44026;-75
2023/01/05 02:34:07;;;;;;;0.50;0.50;;;17.80;69.60;;;;;;5079334;28;43558;-75
2023/01/05 02:36:38;;;;;;;0.40;0.40;;;17.70;69.60;;;;;;5063516;28;43592;-76
2023/01/05 02:39:09;;;;;;;0.40;0.40;;;17.70;69.90;;;;;;5079309;28;44083;-74
2023/01/05 02:41:39;;;;;;;0.53;0.53;;;17.70;69.80;;;;;;5066020;28;43771;-75
2023/01/05 02:44:08;;;;;;;0.40;0.40;;;17.70;69.80;;;;;;5065347;28;43533;-76
2023/01/05 02:46:37;;;;;;;0.23;0.23;;;17.70;69.80;;;;;;5074755;28;43434;-76
2023/01/05 02:49:05;;;;;;;0.40;0.40;;;17.60;69.80;;;;;;5073378;28;43505;-76
2023/01/05 02:51:35;;;;;;;0.50;0.50;;;17.60;69.90;;;;;;5062205;28;43826;-74
2023/01/05 02:54:06;;;;;;;0.37;0.37;;;17.60;70.10;;;;;;5060445;28;44491;-74
2023/01/05 02:56:38;;;;;;;0.40;0.40;;;17.70;70.10;;;;;;5059561;28;43443;-77
2023/01/05 02:59:08;;;;;;;0.40;0.40;;;17.80;69.70;;;;;;5097065;27;43541;-77
2023/01/05 03:01:41;;;;;;;0.50;0.50;;;17.80;69.30;;;;;;5058679;28;45711;-75
2023/01/05 03:04:12;;;;;;;0.40;0.40;;;17.80;69.30;;;;;;5055099;28;44717;-76
2023/01/05 03:06:46;;;;;;;0.40;0.40;;;17.80;69.50;;;;;;5063889;28;43974;-76
2023/01/05 03:09:18;;;;;;;0.40;0.40;;;17.70;69.60;;;;;;5061479;27;43532;-77
2023/01/05 03:14:37;;;;;;;0.40;0.40;;;17.70;69.50;;;;;;5092097;27;44780;-76
2023/01/05 03:17:06;;;;;;;0.40;0.40;;;17.70;69.70;;;;;;5075273;28;43490;-75
2023/01/05 03:19:38;;;;;;;0.33;0.33;;;17.70;69.80;;;;;;5079157;28;43416;-77
2023/01/05 03:36:09;;;;;;;0.40;0.40;;;17.80;69.30;;;;;;5065021;28;43943;-77
2023/01/05 03:38:40;;;;;;;0.37;0.37;;;17.80;69.50;;;;;;5077434;28;43494;-75
2023/01/05 03:41:09;;;;;;;0.50;0.50;;;17.80;69.50;;;;;;5056956;28;43586;-74
2023/01/05 03:43:39;;;;;;;0.40;0.40;;;17.80;69.50;;;;;;5065012;28;44098;-76
2023/01/05 03:46:11;;;;;;;0.50;0.50;;;17.70;69.50;;;;;;5059848;28;43526;-77
2023/01/05 03:48:41;;;;;;;0.53;0.53;;;17.70;69.70;;;;;;5054996;28;43440;-77
2023/01/05 03:51:09;;;;;;;0.43;0.43;;;17.70;69.80;;;;;;5081423;28;43563;-75
2023/01/05 03:53:39;;;;;;;0.40;0.40;;;17.60;69.90;;;;;;5060816;28;44032;-75
2023/01/05 03:56:08;;;;;;;0.50;0.50;;;17.60;70.60;;;;;;5062993;28;43529;-76
2023/01/05 03:58:36;;;;;;;0.40;0.40;;;17.60;69.70;;;;;;5076369;28;43471;-78
2023/01/05 04:01:04;;;;;;;0.47;0.47;;;17.60;69.90;;;;;;5075913;28;43533;-78
2023/01/05 04:03:32;;;;;;;0.63;0.60;;;17.60;69.90;;;;;;5056658;28;45350;-72
2023/01/05 04:06:05;;;;;;;0.47;0.47;;;17.60;70.00;;;;;;5064813;28;43761;-76
2023/01/05 04:08:35;;;;;;;0.50;0.50;;;17.60;70.20;;;;;;5057422;28;43504;-77
2023/01/05 04:11:21;;;;;;;0.30;0.30;;;17.60;70.10;;;;;;5062977;28;44259;-75
2023/01/05 04:13:54;;;;;;;0.50;0.50;;;17.60;70.00;;;;;;5059139;28;46468;-78
2023/01/05 04:16:24;;;;;;;0.40;0.40;;;17.60;70.00;;;;;;5060849;28;44499;-76
2023/01/05 04:18:55;;;;;;;0.50;0.50;;;17.60;70.10;;;;;;5057172;28;43584;-76
2023/01/05 04:21:25;;;;;;;0.50;0.50;;;17.60;70.10;;;;;;5064137;28;43884;-76
2023/01/05 04:23:55;;;;;;;0.50;0.50;;;17.60;70.30;;;;;;5064811;28;44378;-77
2023/01/05 04:26:24;;;;;;;0.57;0.57;;;17.60;70.10;;;;;;5066019;28;44770;-78
2023/01/05 04:28:52;;;;;;;0.60;0.60;;;17.70;69.80;;;;;;5092582;27;43585;-75
2023/01/05 04:31:24;;;;;;;0.60;0.60;;;17.90;69.40;;;;;;5067464;28;43549;-77
2023/01/05 04:33:54;;;;;;;0.70;0.70;;;17.90;69.10;;;;;;5064559;28;43801;-76
2023/01/05 04:36:25;;;;;;;0.50;0.50;;;17.90;69.00;;;;;;5053553;28;44185;-77
2023/01/05 04:38:56;;;;;;;0.70;0.70;;;17.90;69.30;;;;;;5083442;28;43973;-75
2023/01/05 04:41:24;;;;;;;0.60;0.60;;;17.80;69.30;;;;;;5058193;28;43548;-76
2023/01/05 04:43:54;;;;;;;0.60;0.60;;;17.80;69.30;;;;;;5066998;28;43839;-77
2023/01/05 04:46:23;;;;;;;0.60;0.60;;;17.80;69.30;;;;;;5060918;28;43800;-77
2023/01/05 04:48:53;;;;;;;0.70;0.70;;;17.80;69.50;;;;;;5061303;28;44240;-76
2023/01/05 04:51:24;;;;;;;0.60;0.60;;;17.70;69.50;;;;;;5057233;28;44090;-75
2023/01/05 04:53:53;;;;;;;0.70;0.70;;;17.70;69.80;;;;;;5066128;28;45367;-76
2023/01/05 04:56:24;;;;;;;0.80;0.80;;;17.70;69.80;;;;;;5064281;28;44627;-76
2023/01/05 04:58:52;;;;;;;0.87;0.87;;;17.70;69.80;;;;;;5079518;28;43609;-76
2023/01/05 05:01:20;;;;;;;0.80;0.80;;;17.70;69.80;;;;;;5063674;28;43559;-77
2023/01/05 05:03:52;;;;;;;0.90;0.90;;;17.70;69.80;;;;;;5076008;28;45266;-75
2023/01/05 05:06:22;;;;;;;1.33;1.23;;;17.60;69.80;;;;;;5059332;28;44712;-75
2023/01/05 05:08:54;;;;;;;1.90;1.20;;;17.60;70.00;;;;;;5066425;28;43519;-75
2023/01/05 05:11:24;;;;;;;1.20;1.17;;;17.70;70.10;;;;;;5067835;28;43445;-76
2023/01/05 05:13:51;;;;;;;1.10;1.10;;;17.80;69.80;;;;;;5061533;28;45607;-77
2023/01/05 05:16:20;;;;;;;1.23;1.20;;;17.80;69.40;;;;;;5056776;28;43475;-77
2023/01/05 05:18:49;;;;;;;1.87;1.30;;;17.90;69.30;;;;;;5067201;28;43377;-76
2023/01/05 05:21:22;;;;;;;1.57;1.47;;;17.90;69.30;;;;;;5062216;28;43550;-76
2023/01/05 05:23:50;;;;;;;1.63;1.30;;;17.80;69.40;;;;;;5079173;28;43821;-76
2023/01/05 05:26:19;;;;;;;1.43;1.40;;;17.80;69.40;;;;;;5065976;28;43457;-77
2023/01/05 05:28:49;;;;;;;1.80;1.50;;;17.80;69.30;;;;;;5056149;28;44160;-77
2023/01/05 05:31:17;;;;;;;1.37;1.37;;;17.80;69.40;;;;;;5059445;28;43654;-76
2023/01/05 05:33:45;;;;;;;1.17;1.07;;;17.80;69.50;;;;;;5052477;28;43626;-77
2023/01/05 05:36:13;;;;;;;1.23;1.23;;;17.70;69.50;;;;;;5061981;28;44576;-76
2023/01/05 05:38:41;;;;;;;1.50;1.40;;;17.70;69.80;;;;;;5057471;28;43570;-77
2023/01/05 05:41:09;;;;;;;1.60;1.50;;;17.70;69.70;;;;;;5061080;28;43552;-76
2023/01/05 05:43:38;;;;;;;1.30;1.20;;;17.70;69.60;;;;;;5061335;28;46542;-76
2023/01/05 05:46:07;;;;;;;1.70;1.60;;;17.70;69.70;;;;;;5054140;28;44046;-76
2023/01/05 05:48:35;;;;;;;1.27;1.27;;;17.70;69.80;;;;;;5059368;28;44220;-75
2023/01/05 05:51:03;;;;;;;1.40;1.40;;;17.70;69.80;;;;;;5061220;28;43517;-73
2023/01/05 05:53:30;;;;;;;2.03;1.83;;;17.60;70.00;;;;;;5058197;28;43942;-75
2023/01/05 05:55:58;;;;;;;1.30;1.30;;;17.70;70.00;;;;;;5053973;28;43493;-77
2023/01/05 05:58:26;;;;;;;1.13;1.13;;;17.70;69.80;;;;;;5063584;28;43814;-75
2023/01/05 06:00:59;;;;;;;1.20;1.20;;;17.70;69.90;;;;;;5065310;28;44021;-76
2023/01/05 06:03:26;;;;;;;1.40;1.33;;;17.70;69.90;;;;;;5061486;28;43852;-72
2023/01/05 06:05:54;;;;;;;1.40;1.40;;;17.60;69.90;;;;;;5054092;28;43497;-77
2023/01/05 06:08:22;;;;;;;1.67;1.53;;;17.60;70.10;;;;;;5055728;28;43499;-77
2023/01/05 06:10:50;;;;;;;2.43;1.60;;;17.70;70.10;;;;;;5065093;28;43535;-77
2023/01/05 06:13:18;;;;;;;1.40;1.30;;;17.80;69.60;;;;;;5060726;28;45660;-76
2023/01/05 06:15:46;;;;;;;1.43;1.33;;;17.90;69.20;;;;;;5051169;28;43984;-76
2023/01/05 06:18:16;;;;;;;1.50;1.40;;;18.00;69.00;;;;;;5054873;28;43504;-76
2023/01/05 06:20:44;;;;;;;1.70;1.60;;;18.00;69.00;;;;;;5058865;28;43500;-75
2023/01/05 06:23:11;;;;;;;0.97;0.97;;;17.90;69.20;;;;;;5062239;28;43919;-77
2023/01/05 06:25:40;;;;;;;1.33;1.33;;;17.90;69.20;;;;;;5059700;28;44266;-77
2023/01/05 06:28:07;;;;;;;1.43;1.40;;;17.90;69.10;;;;;;5061104;28;43902;-75
2023/01/05 06:30:35;;;;;;;1.40;1.30;;;17.90;69.30;;;;;;5062092;28;43492;-76
2023/01/05 06:33:04;;;;;;;1.60;1.60;;;17.80;69.30;;;;;;5057338;28;43844;-75
2023/01/05 06:35:34;;;;;;;1.63;1.53;;;17.80;69.60;;;;;;5061028;28;43458;-70
2023/01/05 06:38:02;;;;;;;1.50;1.43;;;17.70;69.80;;;;;;5065234;28;43405;-77
2023/01/05 06:40:30;;;;;;;1.47;1.37;;;17.70;69.70;;;;;;5066803;28;43459;-75
2023/01/05 06:42:58;;;;;;;1.20;1.20;;;17.70;69.60;;;;;;5064910;28;45776;-74
2023/01/05 06:45:26;;;;;;;1.60;1.50;;;17.70;69.70;;;;;;5065795;28;43958;-74
2023/01/05 06:47:54;;;;;;;1.37;1.37;;;17.70;69.70;;;;;;5059842;28;43544;-76
2023/01/05 06:50:22;;;;;;;1.50;1.50;;;17.70;69.80;;;;;;5064206;28;43504;-76
2023/01/05 06:52:51;;;;;;;1.40;1.40;;;17.70;69.90;;;;;;5066034;28;43987;-76
2023/01/05 06:55:20;;;;;;;1.53;1.40;;;17.70;70.10;;;;;;5065790;28;44152;-77
2023/01/05 06:57:48;;;;;;;1.50;1.40;;;17.80;69.90;;;;;;5064555;28;43586;-75
2023/01/05 07:00:17;;;;;;;1.33;1.23;;;17.90;69.40;;;;;;5066469;28;43449;-76
2023/01/05 07:02:45;;;;;;;1.60;1.50;;;17.90;69.10;;;;;;5061312;28;45273;-76
2023/01/05 07:05:12;;;;;;;1.27;1.27;;;17.90;69.00;;;;;;5065949;28;43388;-75
2023/01/05 07:07:40;;;;;;;1.50;1.40;;;17.90;69.10;;;;;;5065467;28;43504;-76
2023/01/05 07:10:10;;;;;;;1.60;1.50;;;17.90;70.20;;;;;;5061073;28;43576;-76
2023/01/05 07:12:38;;;;;;;2.20;1.10;;;17.90;69.30;;;;;;5050771;28;46000;-75
2023/01/05 07:15:07;;;;;;;1.20;1.20;;;17.90;69.30;;;;;;5058674;28;44718;-76
2023/01/05 07:17:35;;;;;;;1.30;1.30;;;17.80;69.40;;;;;;5050637;28;43455;-75
2023/01/05 07:20:04;;;;;;;1.30;1.23;;;17.80;69.50;;;;;;5062729;28;43581;-77
2023/01/05 07:22:32;;;;;;;1.10;1.10;;;17.80;69.70;;;;;;5053443;28;43665;-78
2023/01/05 07:25:00;;;;;;;1.20;1.20;;;17.70;69.80;;;;;;5056224;28;44750;-78
2023/01/05 07:27:29;;;;;;;1.53;1.43;;;17.70;69.70;;;;;;5060535;28;43746;-76
2023/01/05 07:29:57;;;;;;;1.17;1.17;;;17.70;69.70;;;;;;5055810;28;43668;-71
2023/01/05 07:32:25;;;;;;;1.33;1.33;;;17.70;69.80;;;;;;5054905;28;43853;-73
2023/01/05 07:34:53;;;;;;;1.23;1.23;;;17.70;69.80;;;;;;5054004;28;43597;-78
2023/01/05 07:37:23;;;;;;;1.20;1.20;;;17.70;69.90;;;;;;5055999;28;43464;-77
2023/01/05 07:39:51;;;;;;;1.83;1.73;;;17.70;70.10;;;;;;5057619;28;43563;-74
2023/01/05 07:42:19;;;;;;;1.57;1.47;;;17.70;69.90;;;;;;5059218;28;45447;-76
2023/01/05 07:44:51;;;;;;;1.20;1.20;;;17.70;69.90;;;;;;5056488;28;44615;-75
2023/01/05 07:47:19;;;;;;;1.47;1.40;;;17.70;69.90;;;;;;5056308;28;43668;-77
2023/01/05 07:49:46;;;;;;;1.27;1.27;;;17.70;69.90;;;;;;5062746;28;43665;-74
2023/01/05 07:52:15;;;;;;;1.50;1.50;;;17.70;70.00;;;;;;5061887;28;43983;-76
2023/01/05 07:54:44;;;;;;;1.40;1.40;;;17.70;70.20;;;;;;5053808;28;43481;-76
2023/01/05 07:57:12;;;;;;;1.40;1.30;;;17.80;70.10;;;;;;5053273;28;44176;-77
2023/01/05 07:59:39;;;;;;;1.37;1.37;;;17.90;69.60;;;;;;5060417;28;43480;-75
2023/01/05 08:02:10;;;;;;;1.47;1.47;;;18.00;69.20;;;;;;5058986;28;43982;-75
2023/01/05 08:04:38;;;;;;;1.00;1.00;;;18.00;69.00;;;;;;5058054;28;44708;-77
2023/01/05 08:07:09;;;;;;;1.47;1.40;;;17.90;69.00;;;;;;5053884;28;43423;-75
2023/01/05 08:12:23;;;;;;;1.50;1.50;;;17.90;69.20;;;;;;5060927;28;43885;-76
2023/01/05 08:14:51;;;;;;;1.20;1.20;;;17.90;69.30;;;;;;5059673;28;44476;-78
2023/01/05 08:17:20;;;;;;;1.53;1.43;;;17.80;69.40;;;;;;5055200;28;44040;-76
2023/01/05 08:19:48;;;;;;;1.53;1.43;;;17.80;69.60;;;;;;5069380;28;43510;-76
2023/01/05 08:22:16;;;;;;;1.57;1.53;;;17.80;69.70;;;;;;5064480;28;43943;-76
2023/01/05 08:24:44;;;;;;;1.33;1.33;;;17.70;69.80;;;;;;5051203;28;43501;-76
2023/01/05 08:27:12;;;;;;;1.40;1.40;;;17.70;69.80;;;;;;5061090;28;43477;-75
2023/01/05 08:29:40;;;;;;;1.10;1.10;;;17.70;69.80;;;;;;5061915;28;45448;-77
2023/01/05 08:32:08;;;;;;;1.60;1.50;;;17.70;69.80;;;;;;5062006;28;43991;-75
2023/01/05 08:34:37;;;;;;;1.30;1.30;;;17.70;69.90;;;;;;5055426;28;43448;-76
2023/01/05 08:37:05;;;;;;;1.60;1.50;;;17.70;70.10;;;;;;5056202;28;43498;-77
2023/01/05 08:39:34;;;;;;;1.30;1.30;;;17.70;70.20;;;;;;5055011;28;43542;-75
2023/01/05 08:42:02;;;;;;;1.40;1.40;;;17.80;70.00;;;;;;5057693;28;45316;-77
2023/01/05 08:44:30;;;;;;;1.33;1.33;;;17.90;69.60;;;;;;5062288;28;43481;-74
2023/01/05 08:46:58;;;;;;;1.57;1.47;;;17.90;69.20;;;;;;5056722;28;43474;-77
2023/01/05 08:49:26;;;;;;;1.50;1.40;;;17.90;69.30;;;;;;5061183;28;43558;-77
2023/01/05 08:51:55;;;;;;;1.50;1.40;;;17.90;69.40;;;;;;5058620;28;44434;-76
2023/01/05 08:54:23;;;;;;;1.47;1.47;;;17.80;69.60;;;;;;5057482;28;43503;-76
2023/01/05 08:56:51;;;;;;;1.60;1.50;;;17.80;69.40;;;;;;5057566;28;43582;-76
2023/01/05 08:59:19;;;;;;;1.80;1.70;;;17.80;69.50;;;;;;5062437;28;43516;-76
2023/01/05 09:01:47;;;;;;;1.40;1.37;;;17.80;69.60;;;;;;5062932;28;43959;-76
2023/01/05 09:04:15;;;;;;;1.30;1.30;;;17.80;69.80;;;;;;5066482;28;44730;-77
2023/01/05 09:06:43;;;;;;;1.27;1.27;;;17.70;69.80;;;;;;5060664;28;43525;-75
2023/01/05 09:09:12;;;;;;;1.40;1.40;;;17.70;70.10;;;;;;5055845;28;44027;-77
2023/01/05 09:11:40;;;;;;;1.57;1.57;;;17.70;69.90;;;;;;5057384;28;46073;-75
2023/01/05 09:14:13;;;;;;;1.40;1.33;;;17.70;69.80;;;;;;5052972;28;44733;-76
2023/01/05 09:16:41;;;;;;;1.67;1.57;;;17.70;69.90;;;;;;5057560;28;43563;-76
2023/01/05 09:19:29;;;;;;;1.60;1.60;;;17.70;70.00;;;;;;5057083;28;43439;-77
2023/01/05 09:21:56;;;;;;;1.63;1.53;;;17.70;70.10;;;;;;5063345;28;46138;-77
2023/01/05 09:24:26;;;;;;;1.57;1.47;;;17.70;70.30;;;;;;5054613;28;43735;-76
2023/01/05 09:26:54;;;;;;;1.50;1.40;;;17.80;70.10;;;;;;5054171;28;43508;-77
2023/01/05 09:29:22;;;;;;;1.70;1.60;;;17.90;69.60;;;;;;5078248;28;43485;-76
2023/01/05 09:31:50;;;;;;;1.50;1.40;;;18.00;69.30;;;;;;5099174;22;43579;-77
2023/01/05 09:34:18;;;;;;;1.53;1.53;;;18.00;69.10;;;;;;5069052;28;43461;-78
2023/01/05 09:36:46;;;;;;;1.30;1.30;;;17.90;69.10;;;;;;5086052;22;44059;-69
2023/01/05 09:39:14;;;;;;;1.77;1.67;;;17.90;69.50;;;;;;5085746;27;44787;-72
2023/01/05 09:41:44;;;;;;;1.43;1.43;;;17.90;69.30;;;;;;5087373;28;43919;-72
2023/01/05 09:44:15;;;;;;;1.60;1.60;;;17.90;69.30;;;;;;5062577;28;45304;-71
2023/01/05 09:46:43;;;;;;;1.50;1.40;;;17.80;69.50;;;;;;5081898;28;43423;-70
2023/01/05 09:49:13;;;;;;;1.70;1.60;;;17.80;69.60;;;;;;5082678;28;43979;-72
2023/01/05 09:51:41;;;;;;;1.50;1.50;;;17.70;69.70;;;;;;5084124;27;43853;-71
2023/01/05 09:54:12;;;;;;;1.37;1.37;;;17.70;69.90;;;;;;5085317;28;44880;-71
2023/01/05 09:56:41;;;;;;;1.80;1.70;;;17.70;69.70;;;;;;5083380;28;44123;-72
2023/01/05 09:59:32;;;;;;;1.20;1.20;;;17.70;69.80;;;;;;5082057;28;44063;-71
2023/01/05 10:02:02;;;;;;;1.40;1.30;;;17.70;69.90;;;;;;5079570;27;43999;-72
2023/01/05 10:04:31;;;;;;;1.60;1.50;;;17.70;70.00;;;;;;5082687;28;43496;-72
2023/01/05 10:07:01;;;;;;;1.80;1.70;;;17.70;70.10;;;;;;5085729;27;43506;-71
2023/01/05 10:09:32;;;;;;;1.60;1.60;;;17.70;70.20;;;;;;5083170;28;43438;-71
2023/01/05 10:14:50;;;;;;;1.60;1.60;;;17.90;69.60;;;;;;5083936;28;43823;-71
2023/01/05 10:17:19;;;;;;;1.60;1.60;;;17.90;69.30;;;;;;5081801;28;43467;-73
2023/01/05 10:20:15;;;;;;;1.90;1.80;;;17.90;69.50;;;;;;5086834;27;43418;-71
2023/01/05 10:22:48;;;;;;;1.50;1.40;;;17.80;69.60;;;;;;5087011;28;43743;-71
2023/01/05 10:25:20;;;;;;;1.47;1.47;;;17.80;69.70;;;;;;5087052;27;43357;-72
2023/01/05 10:27:53;;;;;;;1.30;1.20;;;17.80;69.60;;;;;;5079952;28;43316;-72
2023/01/05 10:30:26;;;;;;;1.40;1.40;;;17.80;69.70;;;;;;5086999;28;43554;-69
2023/01/05 10:32:58;;;;;;;1.43;1.33;;;17.70;69.70;;;;;;5086738;28;43597;-72
2023/01/05 10:35:53;;;;;;;1.33;1.23;;;17.70;69.80;;;;;;5086415;27;44003;-70
2023/01/05 10:38:39;;;;;;;1.47;1.43;;;17.70;70.10;;;;;;5087471;27;43395;-71
2023/01/05 10:41:11;;;;;;;2.00;1.90;;;17.70;70.00;;;;;;5101770;27;43490;-70
2023/01/05 10:43:46;;;;;;;1.87;1.77;;;17.70;69.80;;;;;;5104916;27;44545;-71
2023/01/05 10:46:15;;;;;;;1.40;1.40;;;17.70;70.60;;;;;;5097554;27;43424;-70
2023/01/05 10:49:00;;;;;;;1.30;1.30;;;17.70;69.90;;;;;;5096929;27;43366;-72
2023/01/05 10:51:31;;;;;;;1.50;1.43;;;17.70;69.90;;;;;;5099329;27;44340;-70
2023/01/05 10:53:59;;;;;;;1.40;1.40;;;17.70;70.30;;;;;;5097836;27;43829;-70
2023/01/05 10:56:28;;;;;;;1.60;1.50;;;17.70;70.00;;;;;;5102715;27;43559;-71
2023/01/05 10:59:11;;;;;;;1.60;1.50;;;17.90;69.80;;;;;;5097477;27;43498;-72
2023/01/05 11:01:42;;;;;;;1.60;1.50;;;17.90;69.30;;;;;;5089163;27;43432;-71
2023/01/05 11:04:13;;;;;;;1.80;1.70;;;17.90;69.10;;;;;;5101611;27;43965;-73
2023/01/05 11:07:03;;;;;;;1.40;1.40;;;17.90;69.20;;;;;;5080549;28;44647;-70
2023/01/05 11:09:31;;;;;;;1.67;1.57;;;17.90;69.50;;;;;;5100296;27;43491;-71
2023/01/05 11:12:00;;;;;;;1.40;1.40;;;17.90;69.40;;;;;;5079777;27;44047;-71
2023/01/05 11:14:28;;;;;;;1.70;1.60;;;17.90;69.30;;;;;;5093423;27;44006;-70
2023/01/05 11:17:01;;;;;;;1.50;1.40;;;17.80;69.40;;;;;;5094265;27;43407;-71
2023/01/05 11:19:30;;;;;;;1.40;1.40;;;17.80;69.50;;;;;;5096701;27;43460;-72
2023/01/05 11:21:58;;;;;;;1.97;1.87;;;17.80;69.70;;;;;;5087132;27;43415;-71
2023/01/05 11:24:30;;;;;;;1.57;1.47;;;17.80;69.90;;;;;;5086916;27;44266;-70
2023/01/05 11:27:00;;;;;;;1.57;1.57;;;17.80;69.70;;;;;;5098816;27;43422;-70
2023/01/05 11:29:28;;;;;;;1.40;1.40;;;17.80;69.60;;;;;;5100058;27;43463;-71
2023/01/05 11:31:59;;;;;;;1.50;1.40;;;17.80;69.70;;;;;;5100787;27;43895;-70
2023/01/05 11:34:29;;;;;;;1.67;1.67;;;17.70;70.40;;;;;;5100254;27;43829;-72
2023/01/05 11:36:58;;;;;;;1.83;1.73;;;17.70;70.50;;;;;;5096143;27;43463;-70
2023/01/05 11:39:35;;;;;;;1.57;1.57;;;17.70;70.10;;;;;;5078036;27;43611;-71
2023/01/05 11:42:13;;;;;;;1.57;1.57;;;17.80;69.90;;;;;;5097366;27;44002;-70
2023/01/05 11:44:49;;;;;;;1.50;1.50;;;17.90;69.40;;;;;;5090853;27;43833;-70
2023/01/05 11:47:24;;;;;;;1.53;1.50;;;18.00;69.20;;;;;;5082761;27;44030;-71
2023/01/05 11:50:01;;;;;;;1.70;1.50;;;17.90;68.90;;;;;;5083548;27;44065;-71
2023/01/05 11:52:37;;;;;;;1.57;1.57;;;17.90;69.10;;;;;;5089148;27;43378;-71
2023/01/05 11:55:30;;;;;;;1.70;1.60;;;17.90;69.40;;;;;;5086358;27;43859;-70
2023/01/05 11:58:15;;;;;;;1.63;1.53;;;17.90;69.20;;;;;;5084947;27;43488;-71
2023/01/05 12:00:54;;;;;;;1.57;1.53;;;17.90;69.20;;;;;;5082745;27;43575;-71
2023/01/05 12:03:35;;;;;;;1.63;1.63;;;17.90;69.40;;;;;;5086342;27;43995;-70
2023/01/05 12:06:05;;;;;;;1.73;1.63;;;17.80;69.50;;;;;;5085530;27;44202;-73
2023/01/05 12:08:36;;;;;;;1.70;1.60;;;17.80;69.90;;;;;;5090713;27;43448;-70
2023/01/05 12:11:09;;;;;;;1.50;1.50;;;17.80;69.70;;;;;;5083880;27;43443;-71
2023/01/05 12:13:50;;;;;;;1.43;1.43;;;17.80;69.60;;;;;;5089754;27;43492;-72
2023/01/05 12:16:24;;;;;;;1.73;1.63;;;17.80;69.70;;;;;;5080596;27;46051;-71
2023/01/05 12:19:21;;;;;;;1.43;1.43;;;17.80;69.80;;;;;;5068017;27;44448;-72
2023/01/05 12:21:53;;;;;;;1.77;1.67;;;17.70;69.80;;;;;;5095842;27;43477;-72
2023/01/05 12:24:40;;;;;;;1.60;1.50;;;17.70;70.00;;;;;;5090787;27;43429;-71
2023/01/05 12:27:16;;;;;;;1.57;1.47;;;17.80;69.80;;;;;;5088939;27;43964;-71
2023/01/05 12:29:55;;;;;;;1.60;1.60;;;18.00;69.50;;;;;;5103443;27;44077;-71
2023/01/05 12:32:54;;;;;;;1.53;1.53;;;18.00;69.20;;;;;;5095558;27;43474;-71
2023/01/05 12:36:04;;;;;;;1.70;1.60;;;18.00;69.10;;;;;;5096874;27;43562;-71
2023/01/05 12:38:37;;;;;;;1.80;1.70;;;17.90;69.40;;;;;;5093742;27;43758;-72
2023/01/05 12:41:27;;;;;;;1.70;1.70;;;17.90;69.30;;;;;;5099526;27;43492;-70
2023/01/05 12:44:02;;;;;;;1.40;1.40;;;17.90;69.30;;;;;;5092529;27;44021;-70
2023/01/05 12:46:36;;;;;;;1.50;1.50;;;17.90;69.40;;;;;;5088821;27;43484;-70
2023/01/05 12:49:06;;;;;;;1.70;1.70;;;17.80;69.50;;;;;;5094898;27;43864;-71
2023/01/05 12:51:37;;;;;;;2.00;1.90;;;17.80;69.80;;;;;;5087781;27;43488;-71
2023/01/05 12:54:07;;;;;;;1.80;1.70;;;17.80;69.90;;;;;;5067416;27;43640;-70
2023/01/05 12:56:37;;;;;;;1.70;1.60;;;17.80;69.70;;;;;;5071234;27;43517;-70
2023/01/05 12:59:13;;;;;;;1.97;1.87;;;17.80;69.80;;;;;;5065750;27;45781;-72
2023/01/05 13:01:44;;;;;;;1.83;1.73;;;17.80;69.90;;;;;;5090319;27;43504;-71
2023/01/05 13:04:19;;;;;;;1.67;1.57;;;17.70;69.80;;;;;;5092152;27;43538;-70
2023/01/05 13:06:49;;;;;;;1.70;1.70;;;17.70;70.10;;;;;;5089629;27;43967;-72
2023/01/05 13:09:19;;;;;;;1.60;1.60;;;17.80;70.10;;;;;;5090501;27;43901;-72
2023/01/05 13:11:48;;;;;;;1.77;1.77;;;17.90;69.80;;;;;;5093354;27;43452;-70
2023/01/05 13:14:18;;;;;;;1.57;1.57;;;17.90;69.40;;;;;;5089136;27;43565;-70
2023/01/05 13:16:47;;;;;;;1.33;1.33;;;17.90;69.30;;;;;;5092692;27;43387;-72
2023/01/05 13:19:17;;;;;;;1.53;1.53;;;17.90;69.50;;;;;;5087645;27;43919;-70
2023/01/05 13:21:46;;;;;;;1.67;1.57;;;17.80;69.60;;;;;;5070786;28;44857;-72
2023/01/05 13:24:21;;;;;;;1.60;1.57;;;17.80;69.70;;;;;;5101388;27;43445;-73
2023/01/05 13:26:49;;;;;;;1.93;1.83;;;17.80;69.60;;;;;;5089873;27;43517;-72
2023/01/05 13:29:21;;;;;;;1.40;1.40;;;17.80;69.60;;;;;;5092087;27;43561;-71
2023/01/05 13:31:57;;;;;;;1.50;1.50;;;17.80;69.70;;;;;;5085797;27;43473;-72
2023/01/05 13:34:42;;;;;;;1.53;1.53;;;17.80;69.90;;;;;;5095847;27;43374;-72
2023/01/05 13:37:38;;;;;;;1.50;1.50;;;17.70;70.00;;;;;;5081325;27;43474;-72
2023/01/05 13:40:14;;;;;;;1.60;1.50;;;17.80;70.00;;;;;;5090155;27;43932;-70
2023/01/05 13:43:02;;;;;;;1.60;1.60;;;17.90;69.60;;;;;;5092818;27;43527;-70